Hlavní strana
METAR-TAF:

METAR-TAF

Letiště :

Mezinárodní letiště Gibraltar

Gibraltar, Gibraltar

zeměpisná šířka: 36-09N, zeměpisná délka: 005-21W, výška: 5 m

Aktuální stav počasí

Zpráva byla vytvořena před 52 minutami, v 03:50 UTC
Východní vítr 17 kt
Teplota 19°C
Vlhkost vzduchu 83%
Tlak 1021 hPa
Viditelnost 10 km a více

METAR: LXGB 260350Z AUTO 09017KT 9999 // NCD 19/16 Q1021

Čas: 06:42 (04:42 UTC)

Předpověď počasí

Zpráva byla vytvořena před 15 hodinami a 3 minutami, v 13:39 UTC
Předpověď platná od 25 v 15 UTC do 25 v 23 UTC
Východní vítr 14 kt
Viditelnost 10 km a více
Skoro jasno ve výšce 1800 ft

TAF: LXGB 251339Z 2515/2523 09014KT 9999 FEW018

Stav a předpovědi počasí z více než 4 000 letišť (zprávy METAR a TAF).

Červené a žluté tečky na mapě představují dostupné meteorologické stanice.

Když kurzor umístíte na tečku, zobrazí se název stanice.

Pak kliknutím zobrazíte stav a předpověď počasí.

Chcete-li změnit mapu, kliknutím na zelené tlačítko se znaménkem +mapu přiblížíte, kliknutím na zelené tlačítko se znaménkem – mapu oddálíte a kliknutím na zelené šipky přejdete na sousední mapy.


METAR-TAF: